Aérodrome :
LOGIN :

S'inscrire | Disclaimer

   EN    FR    IT 

 










Légende :    VFR   VFR Marginal   IFR   IFR Intensif   IFR Très Intensif
Visi : 
Plafond : 
>= 8 km
>= 3000ft
5 à 8 km
1000 à 3000 ft
1500m à 5 km
500 à 1000 ft
800 à 1500m
200 à 500 ft
< 800m
< 200 ft
Symboles :   Orages  Brouillard  Fortes neiges  Fortes précipitations  Vent > 20 kt
SIGMETs :   Divers  Orages  Givrage  Turbulence  Onde Orograph.  Cendres Volcan.







- Altitude de l'aérodrome : 489 ft
- Code IATA : GDN


EPGD - Gdansk

DERNIER METAR :
  • 150630Z 14004KT 2800 -SN BR BKN003 M01/M01 Q1030 R11/290095

METARs EXPIRÉS :
  • 150600Z 14004KT 5000 -SN FEW003 SCT006 BKN012 M01/M01 Q1029 R11/290095
  • 150530Z 12005KT 9000 FEW007 BKN013 M01/M01 Q1029 R11/290095
  • 150500Z 08002KT 9999 -SN FEW008 BKN011 M01/M01 Q1029 R11/290095
  • 150430Z 08001KT 9999 -SN FEW009 BKN011 M01/M02 Q1029 R11/290095
  • 150400Z 10002KT 9999 -SN BKN010 M01/M01 Q1029 R11/290095
  • 150330Z 11002KT 8000 -SN BKN013 M01/M01 Q1029 R11/290095

TAF TAF EPGD
Valide du 15 à 06h jusqu'au 16 à 06h UTC


150530Z 1506/1606 09005KT 9999 OVC020
TEMPO 1506/1606 4000 -SN BR BKN006 OVC012
Pas de NOTAMs connus pour ce terrain.



MET'MAP, la Météo Aéronautique d'un coup d'oeil ! - Copyright ORBIFLY Décembre 2007 - Disclaimer

ORBIFLY MET'MAP TEAM :

Programmation & Développement : Alexandra Zaïnal
Conception & Développement : Baudouin d'Aumeries
Co-Programmation & Développement : Marc-Olivier Méhu
Soutien technique & logistique : Manuel Goepfert

Contact : metmap@orbifly.com




SOURCES & CREDITS :

   NOAA